Time;durP1;ratioP1;P1;durP2;ratioP2;P2;SDS_P1;SDS_P2;PMS_P1;PMS_P2;Temp;Humidity;BMP_temperature;BMP_pressure;BME280_temperature;BME280_humidity;BME280_pressure;Samples;Min_cycle;Max_cycle;Signal;HPM_P1;HPM_P2
2021/08/09 00:00:30;;;;;;;14.77;8.50;;;;;;;;;;2131972;27;20047;-42
2021/08/09 00:01:30;;;;;;;;;;;;;;;;;;2130646;27;20533;-43
2021/08/09 00:02:31;;;;;;;13.90;8.35;;;;;;;;;;2130967;27;19919;-41
2021/08/09 00:03:32;;;;;;;11.18;8.63;;;;;;;;;;2131975;27;20123;-42
2021/08/09 00:04:34;;;;;;;11.80;8.50;;;;;;;;;;2130011;27;20527;-42
2021/08/09 00:05:35;;;;;;;11.52;8.65;;;;;;;;;;2131514;27;20108;-42
2021/08/09 00:06:36;;;;;;;10.13;8.60;;;;;;;;;;2131792;27;20548;-42
2021/08/09 00:07:37;;;;;;;11.55;8.82;;;;;;;;;;2129805;27;20042;-42
2021/08/09 00:08:38;;;;;;;12.17;8.67;;;;;;;;;;2131419;27;20106;-43
2021/08/09 00:09:39;;;;;;;14.07;9.38;;;;;;;;;;2131944;27;20134;-44
2021/08/09 00:10:40;;;;;;;12.97;7.90;;;;;;;;;;2130078;27;20070;-42
2021/08/09 00:11:41;;;;;;;12.48;8.80;;;;;;;;;;2131841;27;20046;-44
2021/08/09 00:12:42;;;;;;;14.33;9.10;;;;;;;;;;2132094;27;20050;-41
2021/08/09 00:13:43;;;;;;;12.65;9.45;;;;;;;;;;2129977;27;20303;-41
2021/08/09 00:14:44;;;;;;;12.27;9.40;;;;;;;;;;2131796;27;20057;-42
2021/08/09 00:15:46;;;;;;;13.18;9.30;;;;;;;;;;2132159;27;20043;-42
2021/08/09 00:16:47;;;;;;;11.90;9.15;;;;;;;;;;2128467;27;20039;-42
2021/08/09 00:17:48;;;;;;;14.10;9.73;;;;;;;;;;2131882;27;20125;-42
2021/08/09 00:18:49;;;;;;;14.05;9.57;;;;;;;;;;2132343;27;20118;-43
2021/08/09 00:19:50;;;;;;;14.43;9.93;;;;;;;;;;2129771;27;20039;-42
2021/08/09 00:20:52;;;;;;;13.95;9.65;;;;;;;;;;2131956;27;20129;-42
2021/08/09 00:21:53;;;;;;;14.65;9.98;;;;;;;;;;2132059;27;20527;-41
2021/08/09 00:22:55;;;;;;;18.33;9.95;;;;;;;;;;2128822;27;20076;-42
2021/08/09 00:23:56;;;;;;;12.75;9.82;;;;;;;;;;2132066;27;20045;-43
2021/08/09 00:24:57;;;;;;;13.53;10.13;;;;;;;;;;2131944;27;20125;-44
2021/08/09 00:25:58;;;;;;;13.65;9.60;;;;;;;;;;2128593;27;20068;-42
2021/08/09 00:26:59;;;;;;;13.10;10.20;;;;;;;;;;2132092;27;20057;-42
2021/08/09 00:28:00;;;;;;;15.45;10.48;;;;;;;;;;2131748;27;20133;-43
2021/08/09 00:29:02;;;;;;;14.88;9.80;;;;;;;;;;2129954;27;20053;-43
2021/08/09 00:30:03;;;;;;;12.82;9.82;;;;;;;;;;2132175;27;20094;-42
2021/08/09 00:31:05;;;;;;;14.48;10.50;;;;;;;;;;2131581;27;20126;-42
2021/08/09 00:32:05;;;;;;;;;;;;;;;;;;2130821;27;20100;-42
2021/08/09 00:33:07;;;;;;;14.80;10.40;;;;;;;;;;2131838;27;19922;-43
2021/08/09 00:34:08;;;;;;;14.82;10.02;;;;;;;;;;2130726;27;20126;-42
2021/08/09 00:35:09;;;;;;;14.18;10.48;;;;;;;;;;2131260;27;20043;-42
2021/08/09 00:36:10;;;;;;;12.07;9.98;;;;;;;;;;2132015;27;20130;-42
2021/08/09 00:37:11;;;;;;;15.53;10.40;;;;;;;;;;2130102;27;20157;-42
2021/08/09 00:38:12;;;;;;;13.85;10.23;;;;;;;;;;2131499;27;20050;-42
2021/08/09 00:39:13;;;;;;;14.50;10.37;;;;;;;;;;2131963;27;20522;-43
2021/08/09 00:40:14;;;;;;;14.48;10.88;;;;;;;;;;2129937;27;20074;-42
2021/08/09 00:41:15;;;;;;;16.73;10.37;;;;;;;;;;2131799;27;20057;-43
2021/08/09 00:42:16;;;;;;;13.00;9.90;;;;;;;;;;2130766;27;20133;-42
2021/08/09 00:43:17;;;;;;;16.45;11.07;;;;;;;;;;2129968;27;20509;-42
2021/08/09 00:44:18;;;;;;;14.67;11.10;;;;;;;;;;2131507;27;20046;-42
2021/08/09 00:45:19;;;;;;;15.45;10.30;;;;;;;;;;2131916;27;20190;-42
2021/08/09 00:46:21;;;;;;;14.73;10.18;;;;;;;;;;2129774;27;20050;-43
2021/08/09 00:47:22;;;;;;;;;;;;;;;;;;2132082;27;20049;-43
2021/08/09 00:48:24;;;;;;;15.05;10.85;;;;;;;;;;2131746;27;20371;-42
2021/08/09 00:49:25;;;;;;;16.95;10.60;;;;;;;;;;2129565;27;20066;-42
2021/08/09 00:50:26;;;;;;;17.03;10.20;;;;;;;;;;2131913;27;20479;-43
2021/08/09 00:51:27;;;;;;;15.85;10.82;;;;;;;;;;2131892;27;20181;-42
2021/08/09 00:52:28;;;;;;;12.80;10.03;;;;;;;;;;2127391;27;20051;-43
2021/08/09 00:53:29;;;;;;;12.77;10.93;;;;;;;;;;2131778;27;20137;-43
2021/08/09 00:54:30;;;;;;;15.87;10.03;;;;;;;;;;2131982;27;20130;-43
2021/08/09 00:55:32;;;;;;;13.25;10.57;;;;;;;;;;2129322;27;20146;-46
2021/08/09 00:56:33;;;;;;;17.90;11.05;;;;;;;;;;2131866;27;20074;-42
2021/08/09 00:57:34;;;;;;;13.13;10.37;;;;;;;;;;2131878;27;20054;-43
2021/08/09 00:58:35;;;;;;;12.82;9.80;;;;;;;;;;2129446;27;20122;-42
2021/08/09 00:59:36;;;;;;;12.35;9.65;;;;;;;;;;2131983;27;20053;-42
2021/08/09 01:00:37;;;;;;;13.25;9.48;;;;;;;;;;2131376;27;20483;-43
2021/08/09 01:01:39;;;;;;;13.83;10.13;;;;;;;;;;2130043;27;20049;-42
2021/08/09 01:02:40;;;;;;;;;;;;;;;;;;2132166;27;20038;-43
2021/08/09 01:03:41;;;;;;;13.48;10.20;;;;;;;;;;2131516;27;20036;-42
2021/08/09 01:04:42;;;;;;;13.90;9.90;;;;;;;;;;2129932;27;20166;-42
2021/08/09 01:05:43;;;;;;;13.37;10.00;;;;;;;;;;2132066;27;20054;-42
2021/08/09 01:06:44;;;;;;;12.10;10.27;;;;;;;;;;2130602;27;20563;-43
2021/08/09 01:07:48;;;;;;;12.40;9.73;;;;;;;;;;2130666;27;20467;-42
2021/08/09 01:08:52;;;;;;;13.68;10.10;;;;;;;;;;2131669;27;20053;-42
2021/08/09 01:09:56;;;;;;;14.57;10.60;;;;;;;;;;2129754;27;20122;-41
2021/08/09 01:11:02;;;;;;;18.42;10.90;;;;;;;;;;2130331;27;20587;-42
2021/08/09 01:12:05;;;;;;;18.98;10.93;;;;;;;;;;2131334;27;20125;-43
2021/08/09 01:13:12;;;;;;;16.95;10.32;;;;;;;;;;2129622;27;20103;-42
2021/08/09 01:14:19;;;;;;;21.30;10.68;;;;;;;;;;2130751;27;20134;-44
2021/08/09 01:15:23;;;;;;;18.75;10.75;;;;;;;;;;2131378;27;20490;-42
2021/08/09 01:16:26;;;;;;;12.60;10.32;;;;;;;;;;2129656;27;20042;-42
2021/08/09 01:17:31;;;;;;;16.30;10.93;;;;;;;;;;2131807;27;20053;-42
2021/08/09 01:18:34;;;;;;;14.75;10.52;;;;;;;;;;2131063;27;20402;-41
2021/08/09 01:19:49;;;;;;;15.85;10.48;;;;;;;;;;2130300;27;20145;-41
2021/08/09 01:20:51;;;;;;;12.77;10.40;;;;;;;;;;2131729;27;20050;-42
2021/08/09 01:21:56;;;;;;;11.05;9.13;;;;;;;;;;2129604;27;20523;-43
2021/08/09 01:23:04;;;;;;;11.40;9.48;;;;;;;;;;2131351;27;20473;-42
2021/08/09 01:24:09;;;;;;;16.02;9.82;;;;;;;;;;2131751;27;20133;-42
2021/08/09 01:25:14;;;;;;;15.80;10.80;;;;;;;;;;2129234;27;20046;-43
2021/08/09 01:26:19;;;;;;;14.82;10.60;;;;;;;;;;2131690;27;20496;-43
2021/08/09 01:27:25;;;;;;;13.93;11.15;;;;;;;;;;2131129;27;20392;-42
2021/08/09 01:28:28;;;;;;;15.40;10.82;;;;;;;;;;2129941;27;20082;-42
2021/08/09 01:29:30;;;;;;;16.13;10.65;;;;;;;;;;2131634;27;20050;-41
2021/08/09 01:30:32;;;;;;;13.48;9.75;;;;;;;;;;2130159;27;20070;-42
2021/08/09 01:31:36;;;;;;;14.88;10.65;;;;;;;;;;2130193;27;20070;-42
2021/08/09 01:32:38;;;;;;;14.32;9.40;;;;;;;;;;2131650;27;20126;-42
2021/08/09 01:33:40;;;;;;;13.85;10.05;;;;;;;;;;2129488;27;20406;-41
2021/08/09 01:34:41;;;;;;;;;;;;;;;;;;2131524;27;20047;-43
2021/08/09 01:35:43;;;;;;;12.20;10.48;;;;;;;;;;2131732;27;19919;-43
2021/08/09 01:36:45;;;;;;;13.60;10.02;;;;;;;;;;2129255;27;20043;-42
2021/08/09 01:37:48;;;;;;;14.27;10.48;;;;;;;;;;2131470;27;20034;-42
2021/08/09 01:38:50;;;;;;;14.55;10.38;;;;;;;;;;2131596;27;20176;-42
2021/08/09 01:39:50;;;;;;;;;;;;;;;;;;2129885;27;20126;-42
2021/08/09 01:40:56;;;;;;;14.15;9.95;;;;;;;;;;2131414;27;19926;-42
2021/08/09 01:41:57;;;;;;;14.88;10.52;;;;;;;;;;2131551;27;20157;-42
2021/08/09 01:42:59;;;;;;;18.83;11.65;;;;;;;;;;2129096;27;20129;-43
2021/08/09 01:44:00;;;;;;;;;;;;;;;;;;2132128;27;20046;-44
2021/08/09 01:45:01;;;;;;;13.65;10.35;;;;;;;;;;2124538;27;19919;-42
2021/08/09 01:46:02;;;;;;;13.90;9.77;;;;;;;;;;2128895;27;20444;-43
2021/08/09 01:47:04;;;;;;;14.40;9.32;;;;;;;;;;2131593;27;20050;-42
2021/08/09 01:48:05;;;;;;;16.33;9.90;;;;;;;;;;2130927;27;20108;-43
2021/08/09 01:49:06;;;;;;;12.50;10.60;;;;;;;;;;2129537;27;20134;-42
2021/08/09 01:50:08;;;;;;;14.63;10.52;;;;;;;;;;2131487;27;20488;-42
2021/08/09 01:51:09;;;;;;;14.88;9.88;;;;;;;;;;2130660;27;20129;-43
2021/08/09 01:52:11;;;;;;;12.90;9.00;;;;;;;;;;2127121;27;20055;-42
2021/08/09 01:53:12;;;;;;;12.27;9.95;;;;;;;;;;2122500;27;20045;-44
2021/08/09 01:54:13;;;;;;;13.63;10.63;;;;;;;;;;2123750;27;20047;-42
2021/08/09 01:55:15;;;;;;;12.90;10.82;;;;;;;;;;2130596;27;20126;-42
2021/08/09 01:56:17;;;;;;;11.73;9.95;;;;;;;;;;2131378;27;20137;-43
2021/08/09 01:57:17;;;;;;;13.57;10.00;;;;;;;;;;2129513;27;20121;-43
2021/08/09 01:58:19;;;;;;;12.27;10.30;;;;;;;;;;2130987;27;20069;-42
2021/08/09 01:59:20;;;;;;;12.57;9.50;;;;;;;;;;2131413;27;20119;-44
2021/08/09 02:00:21;;;;;;;15.67;10.73;;;;;;;;;;2129278;27;20050;-43
2021/08/09 02:01:26;;;;;;;14.05;9.93;;;;;;;;;;2131017;27;20483;-42
2021/08/09 02:02:28;;;;;;;12.85;10.05;;;;;;;;;;2131565;27;20051;-44
2021/08/09 02:03:29;;;;;;;12.40;9.77;;;;;;;;;;2129204;27;20087;-43
2021/08/09 02:04:30;;;;;;;13.43;9.50;;;;;;;;;;2131226;27;20443;-43
2021/08/09 02:05:31;;;;;;;15.00;10.90;;;;;;;;;;2131369;27;20051;-43
2021/08/09 02:06:32;;;;;;;13.05;10.68;;;;;;;;;;2129564;27;20125;-44
2021/08/09 02:07:34;;;;;;;13.83;10.10;;;;;;;;;;2130323;27;20047;-44
2021/08/09 02:08:35;;;;;;;;;;;;;;;;;;2132100;27;20126;-48
2021/08/09 02:09:36;;;;;;;12.75;10.52;;;;;;;;;;2129010;27;19926;-47
2021/08/09 02:10:37;;;;;;;14.75;10.57;;;;;;;;;;2131246;27;20119;-46
2021/08/09 02:11:41;;;;;;;16.10;9.77;;;;;;;;;;2131506;27;20126;-45
2021/08/09 02:12:46;;;;;;;15.52;10.50;;;;;;;;;;2128708;27;20041;-45
2021/08/09 02:13:50;;;;;;;13.65;10.52;;;;;;;;;;2131511;27;20048;-46
2021/08/09 02:14:52;;;;;;;14.27;10.80;;;;;;;;;;2130892;27;20053;-44
2021/08/09 02:15:53;;;;;;;;;;;;;;;;;;2129827;27;20043;-48
2021/08/09 02:16:59;;;;;;;13.30;10.57;;;;;;;;;;2131422;27;19919;-45
2021/08/09 02:18:04;;;;;;;14.70;11.05;;;;;;;;;;2129474;27;20187;-45
2021/08/09 02:19:08;;;;;;;16.45;10.68;;;;;;;;;;2131073;27;20129;-44
2021/08/09 02:20:12;;;;;;;16.98;10.50;;;;;;;;;;2131326;27;20046;-45
2021/08/09 02:21:31;;;;;;;14.02;10.05;;;;;;;;;;2129100;27;20038;-45
2021/08/09 02:22:37;;;;;;;15.68;11.23;;;;;;;;;;2131265;27;20138;-46
2021/08/09 02:23:41;;;;;;;15.35;10.18;;;;;;;;;;2130952;27;20126;-45
2021/08/09 02:24:44;;;;;;;16.35;11.30;;;;;;;;;;2130352;27;20402;-45
2021/08/09 02:25:47;;;;;;;17.05;11.50;;;;;;;;;;2131357;27;20129;-45
2021/08/09 02:26:49;;;;;;;13.60;10.88;;;;;;;;;;2130726;27;20126;-47
2021/08/09 02:27:53;;;;;;;14.45;11.35;;;;;;;;;;2129893;27;20134;-48
2021/08/09 02:28:57;;;;;;;15.48;11.40;;;;;;;;;;2131363;27;20077;-45
2021/08/09 02:29:58;;;;;;;15.73;11.77;;;;;;;;;;2129467;27;20126;-46
2021/08/09 02:31:01;;;;;;;14.07;11.20;;;;;;;;;;2130809;27;20184;-46
2021/08/09 02:32:05;;;;;;;14.38;11.68;;;;;;;;;;2131379;27;20050;-49
2021/08/09 02:33:06;;;;;;;15.70;10.85;;;;;;;;;;2128916;27;20122;-44
2021/08/09 02:34:08;;;;;;;17.25;11.75;;;;;;;;;;2130185;27;20122;-47
2021/08/09 02:35:11;;;;;;;17.75;12.48;;;;;;;;;;2131216;27;20075;-46
2021/08/09 02:36:12;;;;;;;19.30;12.00;;;;;;;;;;2128941;27;20121;-44
2021/08/09 02:37:14;;;;;;;18.77;12.23;;;;;;;;;;2130080;27;20055;-45
2021/08/09 02:38:15;;;;;;;17.98;11.60;;;;;;;;;;2131529;27;20125;-47
2021/08/09 02:39:17;;;;;;;14.90;11.27;;;;;;;;;;2128875;27;20474;-47
2021/08/09 02:40:19;;;;;;;15.10;10.85;;;;;;;;;;2131128;27;20405;-46
2021/08/09 02:41:20;;;;;;;;;;;;;;;;;;2124203;27;20078;-47
2021/08/09 02:42:21;;;;;;;19.20;11.82;;;;;;;;;;2127907;27;19934;-47
2021/08/09 02:43:22;;;;;;;18.02;11.82;;;;;;;;;;2131330;27;20125;-47
2021/08/09 02:44:24;;;;;;;15.45;10.60;;;;;;;;;;2131220;27;20126;-48
2021/08/09 02:45:25;;;;;;;12.45;9.32;;;;;;;;;;2130333;27;20137;-46
2021/08/09 02:46:26;;;;;;;18.33;10.63;;;;;;;;;;2131216;27;20047;-49
2021/08/09 02:47:28;;;;;;;12.15;9.77;;;;;;;;;;2130766;27;20447;-47
2021/08/09 02:48:29;;;;;;;15.55;10.65;;;;;;;;;;2129332;27;20038;-48
2021/08/09 02:49:30;;;;;;;;;;;;;;;;;;2131597;27;20051;-46
2021/08/09 02:50:31;;;;;;;13.30;10.32;;;;;;;;;;2130656;27;19948;-49
2021/08/09 02:51:32;;;;;;;15.50;10.98;;;;;;;;;;2129595;27;20424;-48
2021/08/09 02:52:34;;;;;;;16.40;10.23;;;;;;;;;;2126049;27;20047;-48
2021/08/09 02:53:35;;;;;;;14.82;10.25;;;;;;;;;;2124461;27;20063;-46
2021/08/09 02:54:36;;;;;;;16.23;11.10;;;;;;;;;;2130502;27;20521;-49
2021/08/09 02:55:37;;;;;;;16.15;10.32;;;;;;;;;;2131186;27;20067;-48
2021/08/09 02:56:38;;;;;;;16.87;10.67;;;;;;;;;;2129290;27;20145;-47
2021/08/09 02:57:39;;;;;;;15.40;10.68;;;;;;;;;;2130563;27;20035;-47
2021/08/09 02:58:41;;;;;;;15.32;11.30;;;;;;;;;;2131292;27;20133;-46
2021/08/09 02:59:42;;;;;;;17.13;11.13;;;;;;;;;;2129030;27;20043;-49
2021/08/09 03:00:44;;;;;;;20.27;10.63;;;;;;;;;;2130727;27;20043;-46
2021/08/09 03:01:45;;;;;;;18.52;12.10;;;;;;;;;;2131169;27;20103;-46
2021/08/09 03:02:46;;;;;;;15.43;11.27;;;;;;;;;;2129175;27;20100;-48
2021/08/09 03:03:49;;;;;;;17.65;11.52;;;;;;;;;;2130037;27;20038;-49
2021/08/09 03:04:51;;;;;;;16.23;10.60;;;;;;;;;;2131233;27;20137;-48
2021/08/09 03:05:53;;;;;;;15.43;10.98;;;;;;;;;;2131499;27;20129;-48
2021/08/09 03:06:53;;;;;;;;;;;;;;;;;;2131938;27;20031;-49
2021/08/09 03:07:55;;;;;;;15.68;11.02;;;;;;;;;;2132447;27;20069;-47
2021/08/09 03:08:57;;;;;;;17.08;10.73;;;;;;;;;;2130280;27;20034;-47
2021/08/09 03:09:58;;;;;;;15.90;11.18;;;;;;;;;;2132581;27;20060;-46
2021/08/09 03:10:59;;;;;;;12.75;10.73;;;;;;;;;;2132538;27;20398;-47
2021/08/09 03:12:00;;;;;;;19.27;12.00;;;;;;;;;;2130153;27;20054;-47
2021/08/09 03:13:03;;;;;;;15.90;11.43;;;;;;;;;;2132451;27;20125;-47
2021/08/09 03:14:04;;;;;;;29.73;11.30;;;;;;;;;;2132665;27;20103;-47
2021/08/09 03:15:06;;;;;;;15.27;11.38;;;;;;;;;;2129084;27;20050;-46
2021/08/09 03:16:07;;;;;;;16.38;11.88;;;;;;;;;;2132486;27;20492;-47
2021/08/09 03:17:08;;;;;;;15.38;11.70;;;;;;;;;;2132046;27;20045;-52
2021/08/09 03:18:09;;;;;;;19.27;12.57;;;;;;;;;;2130450;27;20049;-47
2021/08/09 03:19:10;;;;;;;16.20;11.15;;;;;;;;;;2132533;27;20137;-46
2021/08/09 03:20:12;;;;;;;18.17;12.70;;;;;;;;;;2131918;27;20125;-48
2021/08/09 03:21:12;;;;;;;18.95;12.65;;;;;;;;;;2130952;27;20125;-49
2021/08/09 03:22:14;;;;;;;15.77;11.67;;;;;;;;;;2132329;27;20050;-48
2021/08/09 03:23:14;;;;;;;21.73;13.45;;;;;;;;;;2131145;27;20051;-48
2021/08/09 03:24:15;;;;;;;26.27;14.27;;;;;;;;;;2131543;27;20107;-46
2021/08/09 03:25:17;;;;;;;25.58;14.43;;;;;;;;;;2132645;27;20122;-46
2021/08/09 03:26:17;;;;;;;27.30;16.23;;;;;;;;;;2130400;27;20612;-49
2021/08/09 03:27:18;;;;;;;27.37;16.10;;;;;;;;;;2131947;27;20047;-46
2021/08/09 03:28:19;;;;;;;31.05;17.17;;;;;;;;;;2132591;27;20114;-50
2021/08/09 03:29:21;;;;;;;25.27;16.50;;;;;;;;;;2130531;27;20440;-47
2021/08/09 03:30:22;;;;;;;23.77;14.98;;;;;;;;;;2131280;27;20133;-48
2021/08/09 03:31:23;;;;;;;24.58;15.00;;;;;;;;;;2132477;27;20042;-51
2021/08/09 03:32:24;;;;;;;23.00;14.35;;;;;;;;;;2130552;27;20047;-47
2021/08/09 03:33:25;;;;;;;23.10;14.03;;;;;;;;;;2132120;27;20046;-48
2021/08/09 03:34:26;;;;;;;21.05;13.10;;;;;;;;;;2132372;27;20137;-49
2021/08/09 03:35:27;;;;;;;20.10;14.02;;;;;;;;;;2130353;27;20047;-48
2021/08/09 03:36:28;;;;;;;23.50;16.10;;;;;;;;;;2132193;27;20115;-49
2021/08/09 03:37:29;;;;;;;27.58;16.70;;;;;;;;;;2131881;27;20133;-47
2021/08/09 03:38:30;;;;;;;21.08;14.82;;;;;;;;;;2129776;27;20043;-49
2021/08/09 03:39:31;;;;;;;23.30;15.93;;;;;;;;;;2131237;27;20421;-48
2021/08/09 03:40:33;;;;;;;23.73;15.90;;;;;;;;;;2132303;27;20550;-48
2021/08/09 03:41:34;;;;;;;29.25;16.15;;;;;;;;;;2130042;27;20487;-46
2021/08/09 03:42:35;;;;;;;22.53;14.70;;;;;;;;;;2132102;27;20062;-47
2021/08/09 03:43:36;;;;;;;23.55;13.73;;;;;;;;;;2132525;27;20049;-49
2021/08/09 03:44:37;;;;;;;19.60;13.47;;;;;;;;;;2130016;27;20271;-47
2021/08/09 03:45:39;;;;;;;21.30;13.45;;;;;;;;;;2132377;27;20053;-49
2021/08/09 03:46:40;;;;;;;23.20;13.07;;;;;;;;;;2132312;27;20103;-48
2021/08/09 03:47:41;;;;;;;19.05;12.55;;;;;;;;;;2129716;27;20039;-47
2021/08/09 03:48:42;;;;;;;19.77;12.90;;;;;;;;;;2132496;27;20051;-48
2021/08/09 03:49:43;;;;;;;27.00;13.40;;;;;;;;;;2131838;27;20543;-47
2021/08/09 03:50:44;;;;;;;21.73;14.27;;;;;;;;;;2130451;27;20120;-51
2021/08/09 03:51:45;;;;;;;20.93;13.73;;;;;;;;;;2132279;27;20042;-48
2021/08/09 03:52:46;;;;;;;22.60;14.38;;;;;;;;;;2126294;27;20046;-49
2021/08/09 03:53:48;;;;;;;21.85;14.60;;;;;;;;;;2130314;27;20147;-47
2021/08/09 03:54:49;;;;;;;21.73;14.40;;;;;;;;;;2132177;27;20102;-46
2021/08/09 03:55:50;;;;;;;20.03;13.97;;;;;;;;;;2131192;27;20062;-48
2021/08/09 03:56:51;;;;;;;19.20;14.13;;;;;;;;;;2131138;27;20126;-48
2021/08/09 03:57:52;;;;;;;23.17;15.40;;;;;;;;;;2132296;27;20046;-47
2021/08/09 03:58:53;;;;;;;20.08;14.13;;;;;;;;;;2130143;27;20051;-47
2021/08/09 03:59:54;;;;;;;22.37;14.13;;;;;;;;;;2132135;27;20126;-50
2021/08/09 04:00:56;;;;;;;25.60;15.15;;;;;;;;;;2132113;27;20151;-47
2021/08/09 04:01:57;;;;;;;;;;;;;;;;;;2130730;27;20407;-47
2021/08/09 04:02:58;;;;;;;21.45;14.52;;;;;;;;;;2131581;27;19919;-50
2021/08/09 04:04:00;;;;;;;21.35;14.05;;;;;;;;;;2131966;27;20490;-50
2021/08/09 04:05:01;;;;;;;24.33;15.77;;;;;;;;;;2130229;27;20047;-48
2021/08/09 04:06:02;;;;;;;24.48;15.13;;;;;;;;;;2131856;27;20582;-48
2021/08/09 04:07:03;;;;;;;25.63;15.63;;;;;;;;;;2132246;27;20050;-48
2021/08/09 04:08:04;;;;;;;24.83;16.25;;;;;;;;;;2129851;27;20654;-47
2021/08/09 04:09:07;;;;;;;24.77;15.73;;;;;;;;;;2131968;27;20100;-51
2021/08/09 04:10:08;;;;;;;23.85;16.20;;;;;;;;;;2132213;27;20467;-49
2021/08/09 04:11:09;;;;;;;24.40;16.58;;;;;;;;;;2130002;27;20129;-49
2021/08/09 04:12:10;;;;;;;32.63;17.65;;;;;;;;;;2131934;27;20053;-49
2021/08/09 04:13:11;;;;;;;31.30;16.87;;;;;;;;;;2132288;27;20069;-47
2021/08/09 04:14:12;;;;;;;28.83;17.67;;;;;;;;;;2129837;27;20077;-49
2021/08/09 04:15:13;;;;;;;28.33;17.15;;;;;;;;;;2132065;27;20050;-50
2021/08/09 04:16:15;;;;;;;26.77;17.47;;;;;;;;;;2131817;27;20483;-51
2021/08/09 04:17:16;;;;;;;;;;;;;;;;;;2129403;27;20046;-48
2021/08/09 04:18:17;;;;;;;24.10;15.82;;;;;;;;;;2132177;27;20406;-51
2021/08/09 04:19:18;;;;;;;26.98;16.42;;;;;;;;;;2132148;27;20133;-51
2021/08/09 04:20:19;;;;;;;21.13;15.17;;;;;;;;;;2129569;27;20121;-50
2021/08/09 04:21:20;;;;;;;21.85;16.33;;;;;;;;;;2132316;27;20140;-46
2021/08/09 04:22:21;;;;;;;26.60;17.80;;;;;;;;;;2131421;27;20130;-51
2021/08/09 04:23:22;;;;;;;26.45;15.82;;;;;;;;;;2129156;27;20088;-48
2021/08/09 04:24:23;;;;;;;22.50;17.23;;;;;;;;;;2132270;27;20050;-48
2021/08/09 04:25:25;;;;;;;23.63;16.70;;;;;;;;;;2131594;27;20483;-50
2021/08/09 04:26:26;;;;;;;24.08;16.58;;;;;;;;;;2130205;27;20043;-46
2021/08/09 04:27:27;;;;;;;27.15;16.95;;;;;;;;;;2131991;27;20180;-47
2021/08/09 04:28:28;;;;;;;26.05;16.70;;;;;;;;;;2131062;27;20627;-48
2021/08/09 04:29:29;;;;;;;23.67;16.77;;;;;;;;;;2130855;27;20133;-47
2021/08/09 04:30:30;;;;;;;24.33;17.10;;;;;;;;;;2132218;27;20077;-49
2021/08/09 04:31:31;;;;;;;33.70;17.58;;;;;;;;;;2130194;27;20125;-49
2021/08/09 04:32:39;;;;;;;23.77;15.95;;;;;;;;;;2131619;27;20098;-49
2021/08/09 04:33:41;;;;;;;27.00;14.93;;;;;;;;;;2131728;27;20046;-47
2021/08/09 04:34:42;;;;;;;24.15;15.18;;;;;;;;;;2129761;27;20122;-47
2021/08/09 04:35:43;;;;;;;23.38;15.73;;;;;;;;;;2131836;27;20042;-46
2021/08/09 04:36:44;;;;;;;22.10;15.13;;;;;;;;;;2132071;27;20050;-51
2021/08/09 04:37:45;;;;;;;24.60;16.90;;;;;;;;;;2129901;27;20039;-47
2021/08/09 04:38:46;;;;;;;21.87;16.03;;;;;;;;;;2131727;27;20047;-47
2021/08/09 04:39:47;;;;;;;26.30;16.98;;;;;;;;;;2132014;27;20388;-49
2021/08/09 04:40:53;;;;;;;27.05;16.42;;;;;;;;;;2129643;27;20573;-48
2021/08/09 04:41:54;;;;;;;20.60;16.48;;;;;;;;;;2131866;27;20039;-49
2021/08/09 04:43:12;;;;;;;22.45;16.73;;;;;;;;;;2131595;27;20047;-48
2021/08/09 04:44:15;;;;;;;28.23;17.45;;;;;;;;;;2129850;27;20503;-48
2021/08/09 04:45:16;;;;;;;29.80;17.45;;;;;;;;;;2131993;27;20125;-47
2021/08/09 04:46:17;;;;;;;27.30;17.27;;;;;;;;;;2130928;27;20042;-48
2021/08/09 04:47:19;;;;;;;24.70;17.85;;;;;;;;;;2130715;27;20471;-47
2021/08/09 04:48:20;;;;;;;24.13;17.55;;;;;;;;;;2132072;27;20223;-52
2021/08/09 04:49:21;;;;;;;28.65;16.77;;;;;;;;;;2130063;27;20058;-48
2021/08/09 04:50:22;;;;;;;25.57;17.87;;;;;;;;;;2131873;27;20398;-49
2021/08/09 04:51:23;;;;;;;20.17;16.10;;;;;;;;;;2131408;27;20125;-48
2021/08/09 04:52:24;;;;;;;21.50;16.98;;;;;;;;;;2128173;27;20081;-50
2021/08/09 04:53:25;;;;;;;24.43;17.43;;;;;;;;;;2130666;27;20459;-46
2021/08/09 04:54:27;;;;;;;22.35;17.23;;;;;;;;;;2131651;27;20311;-48
2021/08/09 04:55:28;;;;;;;25.48;16.35;;;;;;;;;;2129814;27;20039;-50
2021/08/09 04:56:29;;;;;;;23.38;15.68;;;;;;;;;;2131866;27;20137;-47
2021/08/09 04:57:30;;;;;;;23.05;16.15;;;;;;;;;;2131696;27;20049;-50
2021/08/09 04:58:31;;;;;;;20.30;16.10;;;;;;;;;;2129102;27;20049;-46
2021/08/09 04:59:32;;;;;;;24.55;16.70;;;;;;;;;;2131828;27;20142;-47
2021/08/09 05:00:33;;;;;;;31.90;18.80;;;;;;;;;;2131651;27;20145;-49
2021/08/09 05:01:34;;;;;;;30.90;18.25;;;;;;;;;;2129326;27;20042;-48
2021/08/09 05:02:37;;;;;;;28.98;19.55;;;;;;;;;;2131251;27;20054;-50
2021/08/09 05:03:38;;;;;;;20.65;17.05;;;;;;;;;;2127828;27;20130;-47
2021/08/09 05:04:39;;;;;;;26.85;17.60;;;;;;;;;;2129416;27;20049;-49
2021/08/09 05:05:42;;;;;;;21.83;16.15;;;;;;;;;;2131339;27;20050;-48
2021/08/09 05:06:43;;;;;;;20.27;14.68;;;;;;;;;;2130672;27;20423;-50
2021/08/09 05:07:44;;;;;;;17.90;13.38;;;;;;;;;;2129496;27;20547;-48
2021/08/09 05:08:45;;;;;;;24.00;14.67;;;;;;;;;;2131188;27;20071;-47
2021/08/09 05:09:46;;;;;;;20.70;13.77;;;;;;;;;;2130341;27;20129;-48
2021/08/09 05:10:47;;;;;;;19.87;14.43;;;;;;;;;;2130556;27;20039;-46
2021/08/09 05:11:48;;;;;;;23.23;14.48;;;;;;;;;;2131138;27;20517;-48
2021/08/09 05:12:49;;;;;;;23.02;13.48;;;;;;;;;;2128076;27;20223;-51
2021/08/09 05:13:50;;;;;;;20.80;14.93;;;;;;;;;;2130565;27;20469;-47
2021/08/09 05:14:51;;;;;;;19.77;14.88;;;;;;;;;;2131304;27;20049;-50
2021/08/09 05:15:52;;;;;;;22.05;14.23;;;;;;;;;;2129368;27;20122;-45
2021/08/09 05:16:54;;;;;;;22.50;14.93;;;;;;;;;;2129844;27;20076;-44
2021/08/09 05:17:55;;;;;;;20.60;13.25;;;;;;;;;;2131215;27;20052;-43
2021/08/09 05:19:01;;;;;;;18.15;12.85;;;;;;;;;;2129302;27;20042;-45
2021/08/09 05:20:03;;;;;;;19.40;12.93;;;;;;;;;;2130622;27;20137;-44
2021/08/09 05:21:04;;;;;;;22.27;12.93;;;;;;;;;;2131300;27;20125;-46
2021/08/09 05:22:05;;;;;;;21.65;12.57;;;;;;;;;;2126583;27;20126;-44
2021/08/09 05:23:07;;;;;;;21.45;12.07;;;;;;;;;;2130859;27;20134;-44
2021/08/09 05:24:08;;;;;;;19.23;11.27;;;;;;;;;;2131354;27;20043;-44
2021/08/09 05:25:10;;;;;;;22.10;10.75;;;;;;;;;;2128958;27;20038;-44
2021/08/09 05:26:12;;;;;;;18.05;11.50;;;;;;;;;;2129192;27;20074;-44
2021/08/09 05:27:13;;;;;;;15.73;10.20;;;;;;;;;;2131121;27;20134;-44
2021/08/09 05:28:14;;;;;;;17.35;10.57;;;;;;;;;;2129149;27;20050;-46
2021/08/09 05:29:15;;;;;;;16.92;10.00;;;;;;;;;;2130401;27;20126;-43
2021/08/09 05:30:16;;;;;;;14.37;10.97;;;;;;;;;;2130681;27;20554;-45
2021/08/09 05:31:17;;;;;;;16.50;10.35;;;;;;;;;;2129513;27;20408;-44
2021/08/09 05:32:19;;;;;;;16.38;9.18;;;;;;;;;;2129231;27;20138;-49
2021/08/09 05:33:20;;;;;;;14.60;9.13;;;;;;;;;;2130380;27;20034;-51
2021/08/09 05:34:21;;;;;;;14.85;8.98;;;;;;;;;;2129174;27;20452;-48
2021/08/09 05:35:22;;;;;;;19.98;10.00;;;;;;;;;;2130712;27;20045;-49
2021/08/09 05:36:23;;;;;;;13.50;8.70;;;;;;;;;;2129853;27;20038;-48
2021/08/09 05:37:26;;;;;;;14.80;8.27;;;;;;;;;;2129386;27;20042;-48
2021/08/09 05:38:27;;;;;;;11.85;7.68;;;;;;;;;;2130882;27;20461;-49
2021/08/09 05:39:29;;;;;;;13.98;7.18;;;;;;;;;;2129334;27;20042;-51
2021/08/09 05:40:30;;;;;;;11.45;8.52;;;;;;;;;;2128095;27;20047;-51
2021/08/09 05:41:32;;;;;;;13.32;8.77;;;;;;;;;;2129317;27;20407;-50
2021/08/09 05:42:33;;;;;;;21.50;8.52;;;;;;;;;;2128158;27;20379;-51
2021/08/09 05:43:34;;;;;;;15.73;8.27;;;;;;;;;;2130738;27;20038;-45
2021/08/09 05:44:35;;;;;;;13.30;8.57;;;;;;;;;;2130716;27;20179;-44
2021/08/09 05:45:36;;;;;;;18.33;8.55;;;;;;;;;;2129765;27;20455;-44
2021/08/09 05:46:37;;;;;;;20.58;9.00;;;;;;;;;;2130123;27;20655;-44
2021/08/09 05:47:38;;;;;;;30.83;9.82;;;;;;;;;;2130850;27;20129;-45
2021/08/09 05:48:40;;;;;;;25.88;9.30;;;;;;;;;;2127255;27;20057;-44
2021/08/09 05:49:41;;;;;;;16.80;9.27;;;;;;;;;;2130756;27;20094;-44
2021/08/09 05:50:42;;;;;;;11.93;7.35;;;;;;;;;;2130762;27;20555;-44
2021/08/09 05:51:43;;;;;;;13.67;7.97;;;;;;;;;;2129694;27;20129;-44
2021/08/09 05:52:44;;;;;;;17.08;8.93;;;;;;;;;;2128449;27;20038;-45
2021/08/09 05:53:45;;;;;;;9.93;7.73;;;;;;;;;;2130961;27;20148;-46
2021/08/09 05:54:46;;;;;;;15.02;7.88;;;;;;;;;;2129292;27;20042;-46
2021/08/09 05:55:47;;;;;;;21.23;9.13;;;;;;;;;;2130597;27;20039;-45
2021/08/09 05:56:48;;;;;;;14.25;8.90;;;;;;;;;;2130700;27;20494;-45
2021/08/09 05:57:50;;;;;;;20.92;10.05;;;;;;;;;;2128725;27;20038;-47
2021/08/09 05:58:51;;;;;;;14.68;9.23;;;;;;;;;;2130848;27;20084;-45
2021/08/09 05:59:52;;;;;;;20.13;9.13;;;;;;;;;;2130587;27;20043;-45
2021/08/09 06:00:54;;;;;;;23.70;9.68;;;;;;;;;;2128908;27;20042;-45
2021/08/09 06:01:54;;;;;;;19.08;9.25;;;;;;;;;;2130653;27;20046;-46
2021/08/09 06:02:56;;;;;;;17.33;9.18;;;;;;;;;;2130681;27;20576;-45